Airfield :
LOGIN :

Register | Disclaimer

   EN    FR    IT 

 










Legend :    VFR   Marginal VFR   IFR   Intensive IFR   Very Intensive IFR
Visi :
Ceiling :
>= 8 km
>= 3000ft
5 to 8 km
1000 to 3000 ft
1500m to 5 km
500 to 1000 ft
800 to 1500m
200 to 500 ft
< 800m
< 200 ft
Symbols :   Thunderstorms  Fog  Heavy snow  Heavy precipitations  Wind > 20 kt
SIGMETs :     Misc.  Thunderstorms  Icing  Turbulence  Mountain Waves  Volcanic Ashes






- Airport Elevation : 502 ft
- IATA code : ORK


EICK - Cork

CURRENT METAR :
  • 221300Z 24007KT 9999 FEW022 BKN035 11/06 Q1024 NOSIG

EXPIRED METARs :
  • 221230Z 24009KT 9999 BKN035 11/06 Q1024 NOSIG
  • 221200Z 23009KT 9999 BKN033 11/06 Q1024 NOSIG
  • 221130Z 23006KT 9999 BKN033 10/06 Q1024 NOSIG
  • 221100Z 22008KT 9999 BKN033 10/06 Q1024 NOSIG
  • 221030Z 23007KT 9999 BKN032 10/06 Q1024 NOSIG
  • 221000Z 24006KT 9999 BKN032 09/05 Q1024 NOSIG

TAF TAF EICK
Valid from the 22 at 12:00 until the 23 at 12:00 UTC


221100Z 2212/2312 24007KT 9999 FEW025 BKN030
BECMG 2223/2301 29012KT
BECMG 2302/2304 20016G26KT
PROB30
TEMPO 2306/2312 BKN014



MET'MAP, your aeronautical weather chart ! - Copyright ORBIFLY December 2007 - Disclaimer

ORBIFLY MET'MAP TEAM :

Programming & Development : Alexandra Zaïnal
Concept & original design : Baudouin d'Aumeries
Assistance for programming : Marc-Olivier Méhu
Technical & hardware support : Manuel Goepfert

Contact : metmap@orbifly.com




SOURCES & CREDITS :

   NOAA